Time;durP1;ratioP1;P1;durP2;ratioP2;P2;SDS_P1;SDS_P2;PMS_P1;PMS_P2;Temp;Humidity;BMP_temperature;BMP_pressure;BME280_temperature;BME280_humidity;BME280_pressure;Samples;Min_cycle;Max_cycle;Signal;HPM_P1;HPM_P2
2023/01/19 00:00:17;;;;;;;20.00;19.20;;;17.60;50.90;;;;;;5012631;28;20533;-68
2023/01/19 00:02:46;;;;;;;20.37;19.47;;;17.50;50.80;;;;;;5012473;28;20477;-68
2023/01/19 00:05:14;;;;;;;19.83;19.03;;;17.50;50.90;;;;;;5012793;28;20446;-68
2023/01/19 00:07:42;;;;;;;21.07;20.27;;;17.50;50.90;;;;;;5012480;28;20449;-68
2023/01/19 00:10:10;;;;;;;20.20;19.40;;;17.50;50.90;;;;;;5012425;28;20812;-69
2023/01/19 00:12:37;;;;;;;20.40;19.60;;;17.50;50.90;;;;;;5012590;28;21019;-67
2023/01/19 00:15:05;;;;;;;21.20;20.30;;;17.50;50.80;;;;;;5012936;28;20537;-68
2023/01/19 00:17:31;;;;;;;20.57;19.73;;;17.50;50.90;;;;;;5012310;28;20843;-68
2023/01/19 00:19:58;;;;;;;21.10;20.20;;;17.50;50.90;;;;;;5012389;28;20450;-69
2023/01/19 00:22:25;;;;;;;19.90;19.10;;;17.40;50.90;;;;;;5012265;28;20557;-68
2023/01/19 00:24:53;;;;;;;20.30;19.60;;;17.50;51.00;;;;;;5012512;28;20537;-69
2023/01/19 00:27:20;;;;;;;20.60;19.70;;;17.40;50.90;;;;;;5011958;28;20537;-68
2023/01/19 00:29:47;;;;;;;20.40;19.50;;;17.40;51.00;;;;;;5011914;28;20541;-68
2023/01/19 00:32:14;;;;;;;20.07;19.27;;;17.40;51.00;;;;;;5012314;28;20557;-68
2023/01/19 00:34:48;;;;;;;20.60;19.70;;;17.40;51.00;;;;;;5012638;28;20448;-69
2023/01/19 00:37:16;;;;;;;20.40;19.60;;;17.30;51.00;;;;;;5011926;28;20484;-69
2023/01/19 00:39:43;;;;;;;20.40;19.40;;;17.40;51.00;;;;;;5012105;28;20474;-68
2023/01/19 00:44:57;;;;;;;20.43;19.63;;;17.40;51.10;;;;;;5012171;28;20968;-67
2023/01/19 00:47:23;;;;;;;20.03;19.23;;;17.30;51.00;;;;;;5012426;28;20442;-67
2023/01/19 00:49:50;;;;;;;20.60;19.70;;;17.30;51.00;;;;;;5011936;28;20951;-67
2023/01/19 00:52:17;;;;;;;20.50;19.70;;;17.30;51.10;;;;;;5011951;28;20983;-67
2023/01/19 00:54:44;;;;;;;20.73;19.93;;;17.30;51.00;;;;;;5011948;28;20545;-67
2023/01/19 00:57:12;;;;;;;20.37;19.57;;;17.30;51.00;;;;;;5011869;28;20481;-67
2023/01/19 00:59:39;;;;;;;20.70;19.80;;;17.30;51.10;;;;;;5011951;28;20438;-67
2023/01/19 01:02:06;;;;;;;20.83;19.93;;;17.20;51.00;;;;;;5011965;28;20549;-66
2023/01/19 01:04:33;;;;;;;20.40;19.50;;;17.30;51.10;;;;;;5011750;28;20446;-67
2023/01/19 01:07:00;;;;;;;20.43;19.50;;;17.20;51.10;;;;;;5011893;28;20452;-66
2023/01/19 01:09:27;;;;;;;20.10;19.30;;;17.20;51.10;;;;;;5011748;28;20533;-67
2023/01/19 01:11:54;;;;;;;20.03;19.17;;;17.20;51.10;;;;;;5011688;28;20537;-67
2023/01/19 01:14:23;;;;;;;20.30;19.50;;;17.20;51.10;;;;;;5011825;28;20979;-67
2023/01/19 01:16:50;;;;;;;20.30;19.40;;;17.20;51.20;;;;;;5012082;28;20489;-66
2023/01/19 01:19:17;;;;;;;21.00;20.20;;;17.20;51.20;;;;;;5011676;28;20457;-66
2023/01/19 01:21:44;;;;;;;20.47;19.67;;;17.20;51.20;;;;;;5011865;28;20533;-67
2023/01/19 01:24:11;;;;;;;20.27;19.47;;;17.20;51.20;;;;;;5011511;28;20544;-67
2023/01/19 01:26:38;;;;;;;20.50;19.70;;;17.20;51.20;;;;;;5012055;28;20468;-64
2023/01/19 01:29:05;;;;;;;21.40;20.50;;;17.20;51.20;;;;;;5012041;28;20438;-67
2023/01/19 01:31:33;;;;;;;20.67;19.87;;;17.10;51.10;;;;;;5011649;28;20822;-66
2023/01/19 01:34:00;;;;;;;20.17;19.47;;;17.20;51.30;;;;;;5011431;28;20473;-66
2023/01/19 01:36:32;;;;;;;19.87;19.10;;;17.10;51.30;;;;;;5012019;28;20881;-66
2023/01/19 01:38:59;;;;;;;20.47;19.67;;;17.10;51.40;;;;;;5011765;28;20481;-67
2023/01/19 01:41:26;;;;;;;20.57;19.67;;;17.10;51.40;;;;;;5011634;28;20446;-67
2023/01/19 01:43:57;;;;;;;20.23;19.43;;;17.10;51.40;;;;;;5011322;28;20487;-67
2023/01/19 01:46:25;;;;;;;21.23;20.40;;;17.10;51.50;;;;;;5011824;28;20532;-67
2023/01/19 01:49:01;;;;;;;20.03;19.23;;;17.10;51.40;;;;;;5011423;28;20458;-67
2023/01/19 01:51:31;;;;;;;20.10;19.30;;;17.20;51.50;;;;;;5011422;28;20467;-67
2023/01/19 01:54:09;;;;;;;20.73;19.60;;;17.20;51.40;;;;;;5011421;28;20993;-67
2023/01/19 01:56:38;;;;;;;20.30;19.50;;;17.20;51.40;;;;;;5015389;28;20865;-66
2023/01/19 01:59:09;;;;;;;21.10;20.30;;;17.10;51.30;;;;;;5016146;28;20456;-66
2023/01/19 02:04:22;;;;;;;20.77;19.90;;;17.10;51.40;;;;;;5015116;28;20501;-67
2023/01/19 02:15:14;;;;;;;20.17;19.37;;;17.00;51.40;;;;;;5014942;28;20476;-67
2023/01/19 02:17:41;;;;;;;20.13;19.30;;;17.10;51.50;;;;;;5014745;28;20485;-66
2023/01/19 02:20:11;;;;;;;20.40;19.63;;;17.00;51.40;;;;;;5014639;28;20873;-66
2023/01/19 02:22:45;;;;;;;20.97;20.17;;;17.00;51.40;;;;;;5013442;28;20556;-66
2023/01/19 02:25:14;;;;;;;21.47;20.57;;;17.00;51.40;;;;;;5014730;28;20451;-66
2023/01/19 02:27:42;;;;;;;20.40;19.60;;;17.00;51.30;;;;;;5014800;28;20441;-67
2023/01/19 02:30:10;;;;;;;20.00;19.20;;;17.00;51.30;;;;;;5014310;28;20442;-66
2023/01/19 02:32:37;;;;;;;20.00;19.30;;;17.00;51.40;;;;;;5014220;28;20480;-66
2023/01/19 02:35:05;;;;;;;20.40;19.60;;;17.00;51.40;;;;;;5014547;28;20812;-66
2023/01/19 02:37:36;;;;;;;20.30;19.50;;;17.00;51.40;;;;;;5014261;28;20970;-67
2023/01/19 02:40:06;;;;;;;19.90;19.20;;;17.00;51.40;;;;;;5014144;28;20501;-66
2023/01/19 02:42:37;;;;;;;20.20;19.50;;;17.00;51.50;;;;;;5013884;28;20488;-66
2023/01/19 02:45:08;;;;;;;20.37;19.57;;;17.00;51.50;;;;;;5014354;28;20453;-67
2023/01/19 02:47:39;;;;;;;20.43;19.63;;;17.00;51.60;;;;;;5014127;28;20540;-67
2023/01/19 02:50:42;;;;;;;19.70;19.00;;;16.90;51.50;;;;;;5013849;28;20532;-67
2023/01/19 02:53:59;;;;;;;20.70;19.90;;;17.00;51.50;;;;;;5014222;28;20485;-67
2023/01/19 02:56:44;;;;;;;19.80;19.07;;;16.90;51.50;;;;;;4953025;28;20449;-67
2023/01/19 02:59:23;;;;;;;20.17;19.37;;;16.90;51.60;;;;;;4953140;28;20492;-67
2023/01/19 03:02:04;;;;;;;20.57;19.77;;;16.90;51.60;;;;;;4999373;28;20997;-67
2023/01/19 03:04:44;;;;;;;19.90;19.10;;;16.90;51.70;;;;;;5013965;28;20851;-66
2023/01/19 03:07:14;;;;;;;20.63;19.83;;;16.90;51.70;;;;;;5013349;28;20982;-66
2023/01/19 03:09:47;;;;;;;20.50;19.70;;;16.90;51.70;;;;;;5013619;28;20449;-66
2023/01/19 03:12:22;;;;;;;20.27;19.47;;;16.90;51.70;;;;;;5013612;28;20470;-66
2023/01/19 03:14:55;;;;;;;20.40;19.60;;;16.90;51.70;;;;;;5014028;28;20450;-67
2023/01/19 03:17:22;;;;;;;20.23;19.43;;;16.80;51.70;;;;;;5012992;28;20484;-67
2023/01/19 03:19:52;;;;;;;19.87;19.13;;;16.80;51.80;;;;;;5013442;28;20771;-67
2023/01/19 03:22:23;;;;;;;20.57;19.77;;;16.80;51.70;;;;;;5013309;28;20542;-66
2023/01/19 03:24:53;;;;;;;19.80;19.00;;;16.80;51.70;;;;;;5013573;28;20804;-66
2023/01/19 03:27:25;;;;;;;19.60;18.80;;;16.80;51.70;;;;;;5013336;28;20446;-66
2023/01/19 03:29:57;;;;;;;20.20;19.50;;;16.80;51.70;;;;;;5013280;28;20818;-66
2023/01/19 03:32:29;;;;;;;20.40;19.60;;;16.80;51.80;;;;;;5013393;28;20765;-66
2023/01/19 03:34:59;;;;;;;20.53;19.63;;;16.80;51.80;;;;;;5013295;28;20942;-66
2023/01/19 03:37:27;;;;;;;20.57;19.77;;;16.80;51.70;;;;;;5013164;28;20509;-66
2023/01/19 03:39:54;;;;;;;19.63;18.93;;;16.80;51.70;;;;;;5013027;28;20952;-67
2023/01/19 03:42:23;;;;;;;20.47;19.77;;;16.80;51.70;;;;;;5013011;28;20898;-66
2023/01/19 03:44:52;;;;;;;20.43;19.63;;;16.80;51.70;;;;;;5013182;28;20450;-67
2023/01/19 03:47:21;;;;;;;20.33;19.53;;;16.80;52.30;;;;;;5012884;28;20543;-66
2023/01/19 03:49:50;;;;;;;20.97;19.87;;;16.80;51.80;;;;;;5012834;28;20471;-67
2023/01/19 03:52:17;;;;;;;20.40;19.60;;;16.80;51.90;;;;;;5012860;28;20553;-67
2023/01/19 03:54:44;;;;;;;19.57;18.87;;;16.80;51.80;;;;;;5013053;28;20540;-66
2023/01/19 03:57:11;;;;;;;20.10;19.30;;;16.80;51.80;;;;;;5012523;28;20461;-67
2023/01/19 03:59:38;;;;;;;20.10;19.30;;;16.70;52.30;;;;;;5012757;28;20804;-66
2023/01/19 04:02:05;;;;;;;20.07;19.27;;;16.70;51.80;;;;;;5012869;28;20553;-67
2023/01/19 04:04:33;;;;;;;20.40;19.60;;;16.70;51.90;;;;;;5012615;28;21006;-64
2023/01/19 04:07:00;;;;;;;20.70;19.80;;;16.70;51.90;;;;;;4993383;28;20541;-65
2023/01/19 04:09:27;;;;;;;19.93;19.13;;;16.70;51.90;;;;;;4993035;28;20812;-65
2023/01/19 04:11:54;;;;;;;20.07;19.37;;;16.70;51.90;;;;;;4992919;28;20970;-63
2023/01/19 04:14:21;;;;;;;20.90;20.10;;;16.70;51.80;;;;;;4993095;28;20538;-64
2023/01/19 04:16:48;;;;;;;20.20;19.40;;;16.70;51.80;;;;;;5011434;28;20537;-64
2023/01/19 04:19:15;;;;;;;20.50;19.70;;;16.70;51.80;;;;;;5011865;28;20485;-65
2023/01/19 04:21:43;;;;;;;21.03;20.23;;;16.70;51.80;;;;;;5012492;28;20807;-65
2023/01/19 04:24:10;;;;;;;20.10;19.30;;;16.70;51.90;;;;;;5012569;28;20536;-65
2023/01/19 04:26:37;;;;;;;20.33;19.47;;;16.70;51.90;;;;;;5012270;28;20773;-65
2023/01/19 04:29:04;;;;;;;20.80;20.00;;;16.70;51.90;;;;;;5012315;28;20473;-65
2023/01/19 04:31:31;;;;;;;20.40;19.50;;;16.70;51.90;;;;;;5012286;28;20454;-65
2023/01/19 04:33:58;;;;;;;20.57;19.67;;;16.70;51.90;;;;;;5012181;28;20991;-65
2023/01/19 04:36:25;;;;;;;20.33;19.53;;;16.70;52.00;;;;;;5012242;28;20446;-65
2023/01/19 04:38:53;;;;;;;20.80;19.80;;;16.70;52.10;;;;;;5012017;28;20486;-65
2023/01/19 04:41:20;;;;;;;20.93;20.13;;;16.70;52.30;;;;;;5012143;28;20830;-64
2023/01/19 04:43:47;;;;;;;20.63;19.83;;;16.70;52.40;;;;;;5012083;28;20588;-65
2023/01/19 04:46:14;;;;;;;20.33;19.53;;;16.70;52.40;;;;;;5011893;28;20508;-64
2023/01/19 04:48:41;;;;;;;21.27;20.37;;;16.70;52.60;;;;;;5012030;28;20446;-64
2023/01/19 04:51:07;;;;;;;21.00;20.10;;;16.70;52.70;;;;;;5011991;28;20541;-64
2023/01/19 04:53:34;;;;;;;20.97;20.07;;;16.70;52.80;;;;;;5011948;28;20469;-65
2023/01/19 04:56:02;;;;;;;21.37;20.47;;;16.70;52.80;;;;;;5011897;28;20907;-65
2023/01/19 04:58:29;;;;;;;20.43;19.60;;;16.70;52.80;;;;;;5011924;28;20490;-65
2023/01/19 05:00:56;;;;;;;22.13;21.13;;;16.70;52.90;;;;;;5011844;28;20533;-64
2023/01/19 05:03:23;;;;;;;22.27;21.27;;;16.70;52.80;;;;;;5011859;28;20462;-64
2023/01/19 05:05:50;;;;;;;21.70;20.80;;;16.70;52.70;;;;;;5011843;28;20818;-65
2023/01/19 05:08:16;;;;;;;20.83;20.03;;;16.70;52.70;;;;;;5011815;28;20545;-65
2023/01/19 05:10:43;;;;;;;24.10;23.10;;;16.70;52.70;;;;;;5011732;28;20795;-65
2023/01/19 05:13:12;;;;;;;21.23;20.33;;;16.70;52.70;;;;;;5011880;28;20480;-64
2023/01/19 05:15:39;;;;;;;21.70;20.70;;;16.70;52.50;;;;;;5011866;28;20481;-64
2023/01/19 05:18:06;;;;;;;21.43;20.53;;;16.70;52.40;;;;;;5011718;28;20477;-65
2023/01/19 05:20:33;;;;;;;21.63;20.73;;;16.70;52.40;;;;;;5011485;28;20959;-65
2023/01/19 05:23:00;;;;;;;21.83;20.83;;;16.70;52.30;;;;;;5011805;28;20548;-65
2023/01/19 05:25:26;;;;;;;22.00;21.00;;;16.70;52.30;;;;;;5011577;28;20541;-65
2023/01/19 05:27:53;;;;;;;21.50;20.60;;;16.70;52.30;;;;;;5012008;28;20446;-65
2023/01/19 05:30:22;;;;;;;21.63;20.73;;;16.70;52.20;;;;;;5013137;28;20533;-65
2023/01/19 05:32:48;;;;;;;21.50;20.60;;;16.70;52.20;;;;;;5015373;28;20903;-65
2023/01/19 05:35:16;;;;;;;22.23;21.17;;;16.60;52.00;;;;;;5015595;28;20442;-65
2023/01/19 05:37:43;;;;;;;22.20;21.00;;;16.70;52.50;;;;;;5015399;28;20459;-65
2023/01/19 05:40:11;;;;;;;23.60;21.87;;;16.70;53.80;;;;;;5015239;28;20455;-65
2023/01/19 05:42:37;;;;;;;23.70;22.00;;;16.70;55.00;;;;;;5014688;28;20484;-65
2023/01/19 05:45:05;;;;;;;25.50;23.00;;;16.70;57.50;;;;;;5015710;28;20456;-65
2023/01/19 05:47:33;;;;;;;25.03;23.00;;;16.70;61.10;;;;;;5015565;28;20947;-65
2023/01/19 05:50:00;;;;;;;25.50;23.60;;;16.70;66.50;;;;;;5015688;28;20446;-65
2023/01/19 05:52:27;;;;;;;23.83;22.20;;;16.70;65.50;;;;;;5015327;28;21034;-62
2023/01/19 05:54:54;;;;;;;23.67;22.27;;;16.70;67.10;;;;;;5015626;28;20528;-62
2023/01/19 05:57:21;;;;;;;25.63;23.20;;;16.70;66.70;;;;;;5013662;28;20473;-59
2023/01/19 05:59:48;;;;;;;23.30;21.97;;;16.70;66.40;;;;;;5014802;28;20852;-60
2023/01/19 06:02:15;;;;;;;24.73;22.50;;;16.70;65.80;;;;;;5013904;28;20489;-58
2023/01/19 06:04:43;;;;;;;23.70;22.13;;;16.80;65.20;;;;;;5014979;28;20541;-56
2023/01/19 06:07:10;;;;;;;25.90;23.87;;;16.70;66.00;;;;;;5015018;28;20442;-59
2023/01/19 06:09:37;;;;;;;23.87;22.30;;;16.70;65.30;;;;;;5014622;28;20528;-55
2023/01/19 06:12:04;;;;;;;25.90;24.13;;;16.70;64.80;;;;;;5014862;28;20476;-53
2023/01/19 06:14:31;;;;;;;25.77;24.27;;;16.60;64.30;;;;;;5014850;28;20817;-53
2023/01/19 06:16:58;;;;;;;25.13;23.60;;;16.60;62.90;;;;;;5014705;28;20469;-54
2023/01/19 06:19:24;;;;;;;22.50;21.10;;;16.60;62.30;;;;;;5014497;28;20572;-57
2023/01/19 06:21:53;;;;;;;24.47;22.50;;;16.60;61.70;;;;;;5014665;28;20442;-57
2023/01/19 06:24:19;;;;;;;24.50;22.57;;;16.60;60.90;;;;;;5014703;28;20541;-54
2023/01/19 06:26:46;;;;;;;23.33;22.03;;;16.60;60.30;;;;;;5014558;28;20446;-60
2023/01/19 06:29:13;;;;;;;24.03;22.33;;;16.50;59.80;;;;;;5014360;28;20442;-55
2023/01/19 06:31:40;;;;;;;25.20;23.33;;;16.60;59.50;;;;;;5014363;28;20448;-58
2023/01/19 06:34:08;;;;;;;23.17;21.67;;;16.50;59.20;;;;;;5014403;28;20566;-55
2023/01/19 06:36:35;;;;;;;22.87;21.57;;;16.50;58.80;;;;;;5014460;28;20449;-54
2023/01/19 06:39:04;;;;;;;24.23;22.73;;;16.50;58.50;;;;;;5014135;28;20906;-52
2023/01/19 06:41:32;;;;;;;23.37;22.07;;;16.50;58.20;;;;;;5013674;28;20449;-57
2023/01/19 06:43:58;;;;;;;24.17;22.40;;;16.50;57.90;;;;;;5014971;28;20473;-61
2023/01/19 06:46:26;;;;;;;22.60;21.50;;;16.50;57.70;;;;;;5014385;28;20452;-55
2023/01/19 06:48:53;;;;;;;23.37;22.10;;;16.50;57.50;;;;;;5014285;28;20450;-55
2023/01/19 06:51:20;;;;;;;23.30;21.83;;;16.40;57.20;;;;;;5014369;28;20442;-56
2023/01/19 06:53:47;;;;;;;23.20;22.10;;;16.40;57.10;;;;;;5014309;28;20476;-54
2023/01/19 06:56:15;;;;;;;23.27;21.87;;;16.40;56.90;;;;;;5014155;28;20457;-59
2023/01/19 06:58:42;;;;;;;23.13;21.80;;;16.40;56.70;;;;;;5014288;28;20485;-57
2023/01/19 07:01:09;;;;;;;22.73;21.47;;;16.40;56.50;;;;;;5013989;28;20450;-56
2023/01/19 07:03:37;;;;;;;23.27;22.17;;;16.40;56.40;;;;;;5014158;28;20466;-59
2023/01/19 07:06:05;;;;;;;23.10;21.70;;;16.30;56.30;;;;;;5014278;28;20446;-61
2023/01/19 07:08:32;;;;;;;25.43;23.73;;;16.30;56.30;;;;;;5013893;28;20457;-60
2023/01/19 07:11:01;;;;;;;24.13;22.27;;;16.30;56.10;;;;;;5013804;28;20940;-60
2023/01/19 07:13:29;;;;;;;22.73;21.40;;;16.40;56.00;;;;;;5013768;28;20968;-58
2023/01/19 07:15:56;;;;;;;23.37;22.00;;;16.40;56.30;;;;;;5013890;28;20481;-56
2023/01/19 07:18:22;;;;;;;23.10;21.80;;;16.40;55.60;;;;;;5013775;28;20448;-57
2023/01/19 07:20:49;;;;;;;22.33;21.30;;;16.40;55.50;;;;;;5013576;28;20446;-55
2023/01/19 07:23:16;;;;;;;22.40;21.40;;;16.40;55.40;;;;;;5013790;28;20815;-61
2023/01/19 07:25:45;;;;;;;22.20;21.10;;;16.40;55.20;;;;;;5013688;28;20450;-57
2023/01/19 07:28:14;;;;;;;22.77;21.57;;;16.40;55.00;;;;;;5013631;28;20457;-60
2023/01/19 07:30:44;;;;;;;22.20;21.20;;;16.40;55.00;;;;;;5013316;28;20541;-59
2023/01/19 07:33:11;;;;;;;21.97;20.97;;;16.40;54.80;;;;;;5013656;28;20466;-60
2023/01/19 07:35:38;;;;;;;22.33;21.33;;;16.40;54.70;;;;;;5013485;28;20450;-58
2023/01/19 07:38:05;;;;;;;22.63;21.43;;;16.40;54.60;;;;;;5013766;28;20529;-54
2023/01/19 07:40:32;;;;;;;23.00;21.80;;;16.40;54.40;;;;;;5013161;28;20478;-52
2023/01/19 07:42:59;;;;;;;22.70;21.60;;;16.40;54.30;;;;;;5013349;28;20482;-56
2023/01/19 07:45:26;;;;;;;22.50;21.40;;;16.40;54.20;;;;;;5013532;28;20870;-59
2023/01/19 07:47:54;;;;;;;21.90;20.80;;;16.40;54.00;;;;;;5013554;28;20456;-56
2023/01/19 07:50:23;;;;;;;22.63;21.43;;;16.40;54.40;;;;;;5013042;28;20446;-57
2023/01/19 07:52:52;;;;;;;22.80;21.60;;;16.40;53.80;;;;;;5012362;28;20572;-59
2023/01/19 07:55:19;;;;;;;22.90;21.80;;;16.30;53.60;;;;;;5013135;28;20453;-59
2023/01/19 07:57:49;;;;;;;22.27;21.17;;;16.30;53.60;;;;;;5013397;28;20446;-56
2023/01/19 08:00:18;;;;;;;22.90;21.63;;;16.30;53.50;;;;;;5012763;28;21060;-58
2023/01/19 08:02:46;;;;;;;22.27;21.17;;;16.30;53.40;;;;;;5012863;28;20561;-57
2023/01/19 08:05:14;;;;;;;22.50;21.30;;;16.30;53.40;;;;;;5012919;28;20449;-58
2023/01/19 08:07:41;;;;;;;22.33;21.23;;;16.30;53.30;;;;;;5012902;28;20805;-57
2023/01/19 08:10:09;;;;;;;22.90;21.43;;;16.30;53.20;;;;;;5012637;28;20442;-55
2023/01/19 08:12:36;;;;;;;22.13;21.17;;;16.20;53.00;;;;;;5012699;28;20844;-57
2023/01/19 08:15:03;;;;;;;22.40;21.20;;;16.20;53.00;;;;;;5012774;28;20541;-56
2023/01/19 08:17:30;;;;;;;22.23;21.23;;;16.20;52.90;;;;;;5012664;28;20906;-57
2023/01/19 08:19:57;;;;;;;21.70;20.70;;;16.20;52.80;;;;;;5012425;28;20571;-58
2023/01/19 08:22:25;;;;;;;21.90;20.80;;;16.20;52.80;;;;;;5012558;28;20472;-59
2023/01/19 08:24:53;;;;;;;23.20;22.00;;;16.20;52.80;;;;;;5012542;28;20878;-58
2023/01/19 08:27:20;;;;;;;23.20;22.10;;;16.20;52.70;;;;;;5012667;28;20954;-55
2023/01/19 08:29:47;;;;;;;22.67;21.67;;;16.20;52.50;;;;;;5012225;28;20448;-56
2023/01/19 08:32:14;;;;;;;22.60;21.50;;;16.10;52.40;;;;;;5012514;28;20563;-57
2023/01/19 08:34:41;;;;;;;22.47;21.47;;;16.10;52.40;;;;;;5012395;28;20767;-58
2023/01/19 08:37:08;;;;;;;22.73;21.70;;;16.10;52.40;;;;;;5012502;28;20545;-57
2023/01/19 08:39:36;;;;;;;22.23;21.13;;;16.10;52.30;;;;;;5012094;28;21011;-58
2023/01/19 08:42:03;;;;;;;21.73;20.70;;;16.10;52.30;;;;;;5012055;28;21031;-60
2023/01/19 08:44:29;;;;;;;23.13;21.80;;;16.10;52.20;;;;;;5012467;28;20453;-56
2023/01/19 08:46:56;;;;;;;22.13;21.03;;;16.10;52.20;;;;;;5012106;28;20450;-58
2023/01/19 08:49:23;;;;;;;22.33;21.30;;;16.10;52.10;;;;;;5012071;28;20858;-60
2023/01/19 08:51:50;;;;;;;22.50;21.40;;;16.10;52.10;;;;;;5012054;28;20456;-59
2023/01/19 08:54:17;;;;;;;22.17;21.17;;;16.00;52.00;;;;;;5011992;28;20542;-62
2023/01/19 08:56:45;;;;;;;22.10;21.10;;;16.10;52.10;;;;;;5012219;28;20445;-61
2023/01/19 08:59:12;;;;;;;22.50;21.50;;;16.10;52.00;;;;;;5011770;28;20488;-60
2023/01/19 09:01:40;;;;;;;22.40;21.50;;;16.00;51.90;;;;;;5011990;28;20906;-60
2023/01/19 09:04:07;;;;;;;22.80;21.90;;;16.00;51.90;;;;;;5011699;28;20492;-61
2023/01/19 09:06:33;;;;;;;22.63;21.63;;;16.00;51.90;;;;;;5012070;28;20446;-62
2023/01/19 09:09:01;;;;;;;22.23;21.13;;;16.00;51.80;;;;;;5011835;28;20456;-61
2023/01/19 09:11:28;;;;;;;22.63;21.53;;;16.00;51.80;;;;;;5011888;28;20882;-61
2023/01/19 09:13:56;;;;;;;23.03;21.93;;;16.00;51.70;;;;;;5011697;28;20903;-62
2023/01/19 09:16:25;;;;;;;22.80;21.70;;;16.00;51.70;;;;;;5011841;28;20446;-60
2023/01/19 09:18:52;;;;;;;23.00;21.57;;;16.00;51.70;;;;;;5011412;28;20450;-61
2023/01/19 09:21:19;;;;;;;22.50;21.50;;;16.00;51.70;;;;;;5011901;28;20449;-60
2023/01/19 09:23:47;;;;;;;22.30;21.30;;;15.90;51.60;;;;;;5011708;28;20466;-61
2023/01/19 09:26:14;;;;;;;21.83;20.93;;;15.90;51.60;;;;;;5011662;28;20541;-61
2023/01/19 09:28:42;;;;;;;22.30;21.30;;;15.90;51.50;;;;;;5011597;28;20794;-60
2023/01/19 09:31:10;;;;;;;22.80;21.80;;;15.90;51.50;;;;;;5011649;28;20533;-61
2023/01/19 09:33:37;;;;;;;22.63;21.53;;;16.00;51.60;;;;;;5011530;28;20557;-61
2023/01/19 09:36:04;;;;;;;22.60;21.50;;;15.90;52.00;;;;;;5011641;28;20504;-60
2023/01/19 09:38:31;;;;;;;22.33;21.33;;;16.00;52.20;;;;;;5011611;28;20449;-61
2023/01/19 09:40:59;;;;;;;22.43;21.43;;;16.00;51.60;;;;;;5011520;28;20485;-61
2023/01/19 09:43:35;;;;;;;22.67;21.63;;;16.00;51.60;;;;;;5011403;28;20480;-59
2023/01/19 09:46:04;;;;;;;22.50;21.40;;;16.00;51.50;;;;;;5011760;28;20446;-60
2023/01/19 09:48:44;;;;;;;22.97;21.87;;;16.00;51.40;;;;;;5011580;28;20456;-58
2023/01/19 09:51:15;;;;;;;23.17;22.07;;;16.00;51.40;;;;;;5011438;28;20450;-60
2023/01/19 09:54:00;;;;;;;22.37;21.33;;;16.00;51.40;;;;;;5011420;28;20987;-61
2023/01/19 09:56:28;;;;;;;22.50;21.50;;;16.00;51.30;;;;;;5011457;28;20450;-61
2023/01/19 09:58:55;;;;;;;22.80;21.80;;;16.00;51.30;;;;;;5011331;28;20454;-61
2023/01/19 10:01:37;;;;;;;23.23;22.23;;;16.00;51.30;;;;;;5011392;28;20855;-61
2023/01/19 10:04:26;;;;;;;22.67;21.57;;;16.00;51.30;;;;;;5011312;28;20480;-60
2023/01/19 10:07:03;;;;;;;23.17;22.13;;;16.00;51.30;;;;;;5011421;28;20452;-59
2023/01/19 10:09:35;;;;;;;22.73;21.63;;;16.00;51.30;;;;;;5011523;28;20954;-62
2023/01/19 10:12:08;;;;;;;23.00;21.90;;;16.00;51.30;;;;;;5011325;28;20920;-59
2023/01/19 10:14:44;;;;;;;22.70;21.63;;;16.00;51.30;;;;;;5011267;28;20456;-58
2023/01/19 10:17:26;;;;;;;22.00;21.10;;;16.00;51.30;;;;;;5014130;28;20453;-61
2023/01/19 10:19:57;;;;;;;22.03;21.03;;;15.90;51.20;;;;;;5014640;28;20855;-59
2023/01/19 10:22:28;;;;;;;22.97;21.87;;;16.00;51.30;;;;;;5014625;28;20557;-59
2023/01/19 10:24:57;;;;;;;22.30;21.30;;;16.00;51.20;;;;;;5014805;28;20452;-60
2023/01/19 10:27:27;;;;;;;22.27;21.23;;;16.00;51.20;;;;;;5014689;28;20814;-60
2023/01/19 10:29:54;;;;;;;22.50;21.50;;;16.00;51.10;;;;;;5014337;28;20464;-59
2023/01/19 10:32:24;;;;;;;22.73;21.63;;;16.00;51.10;;;;;;5014742;28;20466;-61
2023/01/19 10:34:52;;;;;;;21.90;20.90;;;16.00;51.00;;;;;;5014432;28;20458;-61
2023/01/19 10:37:29;;;;;;;21.87;20.87;;;16.00;51.00;;;;;;5014441;28;20533;-61
2023/01/19 10:39:59;;;;;;;22.87;21.77;;;16.00;51.00;;;;;;5014162;28;20482;-60
2023/01/19 10:42:29;;;;;;;22.07;21.07;;;16.00;51.00;;;;;;5014240;28;20484;-61
2023/01/19 10:44:56;;;;;;;22.40;21.40;;;16.00;51.00;;;;;;5014277;28;20795;-62
2023/01/19 10:47:30;;;;;;;22.60;21.60;;;15.90;50.80;;;;;;5014467;28;20999;-60
2023/01/19 10:49:57;;;;;;;22.40;21.40;;;15.90;50.80;;;;;;5013940;28;20949;-60
2023/01/19 10:52:32;;;;;;;22.93;21.83;;;15.90;50.80;;;;;;5014113;28;20466;-62
2023/01/19 10:55:01;;;;;;;22.40;21.30;;;15.90;50.80;;;;;;5014357;28;20446;-60
2023/01/19 10:57:30;;;;;;;23.07;22.07;;;15.90;50.80;;;;;;5014104;28;20452;-61
2023/01/19 10:59:57;;;;;;;23.83;22.83;;;15.90;50.70;;;;;;5013737;28;20508;-60
2023/01/19 11:02:26;;;;;;;22.00;20.90;;;15.90;50.70;;;;;;5013906;28;20835;-59
2023/01/19 11:04:55;;;;;;;21.80;20.70;;;15.90;50.70;;;;;;5013854;28;20557;-60
2023/01/19 11:07:28;;;;;;;21.80;20.80;;;15.90;50.70;;;;;;5013877;28;20452;-60
2023/01/19 11:10:20;;;;;;;21.90;20.90;;;15.90;50.60;;;;;;5013704;28;20809;-60
2023/01/19 11:12:59;;;;;;;21.87;20.87;;;15.90;50.60;;;;;;5013994;28;20468;-62
2023/01/19 11:15:33;;;;;;;22.03;20.90;;;15.90;50.60;;;;;;5013839;28;20500;-58
2023/01/19 11:18:02;;;;;;;23.47;22.27;;;15.80;50.60;;;;;;5013875;28;20525;-58
2023/01/19 11:20:34;;;;;;;22.87;21.87;;;15.80;50.60;;;;;;5013346;28;20492;-61
2023/01/19 11:23:08;;;;;;;22.87;21.87;;;15.80;50.60;;;;;;5013522;28;20477;-59
2023/01/19 11:25:36;;;;;;;23.90;22.90;;;15.80;50.60;;;;;;5013470;28;20446;-61
2023/01/19 11:28:04;;;;;;;23.83;22.43;;;15.80;50.60;;;;;;5013542;28;20454;-59
2023/01/19 11:30:31;;;;;;;23.53;22.40;;;15.80;50.60;;;;;;5013264;28;21006;-59
2023/01/19 11:32:58;;;;;;;23.27;22.27;;;15.80;50.60;;;;;;5013339;28;20561;-61
2023/01/19 11:35:39;;;;;;;24.30;23.20;;;15.80;50.50;;;;;;5013411;28;20508;-61
2023/01/19 11:38:16;;;;;;;23.50;22.40;;;15.80;50.50;;;;;;5013309;28;20452;-61
2023/01/19 11:40:51;;;;;;;22.80;21.80;;;15.70;50.50;;;;;;5012984;28;20577;-61
2023/01/19 11:43:19;;;;;;;22.40;21.20;;;15.80;50.50;;;;;;5013125;28;20469;-61
2023/01/19 11:45:46;;;;;;;22.57;21.47;;;15.80;50.50;;;;;;5013305;28;20456;-60
2023/01/19 11:48:22;;;;;;;22.80;21.70;;;15.80;51.00;;;;;;5013094;28;20815;-61
2023/01/19 11:50:49;;;;;;;22.80;21.70;;;15.80;50.40;;;;;;5012949;28;20441;-61
2023/01/19 11:53:23;;;;;;;21.90;20.80;;;15.70;50.30;;;;;;5012885;28;20824;-61
2023/01/19 11:55:55;;;;;;;23.20;22.10;;;15.70;50.30;;;;;;5013082;28;20450;-59
2023/01/19 11:58:22;;;;;;;22.80;21.80;;;15.70;50.40;;;;;;5012898;28;20446;-60
2023/01/19 12:00:51;;;;;;;22.40;21.40;;;15.70;50.40;;;;;;5012660;28;20482;-60
2023/01/19 12:03:23;;;;;;;23.00;22.00;;;15.70;50.50;;;;;;5012904;28;20837;-60
2023/01/19 12:05:53;;;;;;;22.93;21.93;;;15.80;50.50;;;;;;5012944;28;20446;-61
2023/01/19 12:08:26;;;;;;;22.40;21.40;;;15.70;50.40;;;;;;5012644;28;20448;-60
2023/01/19 12:10:57;;;;;;;22.70;21.60;;;15.80;50.50;;;;;;5012529;28;20928;-60
2023/01/19 12:13:25;;;;;;;23.70;22.60;;;15.80;50.40;;;;;;5012690;28;20838;-60
2023/01/19 12:15:56;;;;;;;22.67;21.57;;;15.80;50.40;;;;;;5012600;28;20438;-58
2023/01/19 12:18:26;;;;;;;22.67;21.67;;;15.80;50.40;;;;;;5012580;28;20980;-60
2023/01/19 12:20:55;;;;;;;22.67;21.67;;;15.80;50.40;;;;;;5012302;28;20925;-60
2023/01/19 12:23:32;;;;;;;22.60;21.30;;;15.80;50.90;;;;;;5012367;28;20466;-60
2023/01/19 12:26:28;;;;;;;22.70;21.70;;;15.80;50.40;;;;;;5012469;28;20515;-60
2023/01/19 12:28:59;;;;;;;22.57;21.47;;;15.80;50.40;;;;;;5012326;28;20464;-61
2023/01/19 12:31:27;;;;;;;22.27;21.27;;;15.80;50.40;;;;;;5012393;28;20442;-59
2023/01/19 12:33:54;;;;;;;23.00;21.60;;;15.80;50.40;;;;;;5012230;28;20468;-57
2023/01/19 12:36:35;;;;;;;22.43;21.40;;;15.80;50.40;;;;;;5012222;28;20532;-60
2023/01/19 12:39:06;;;;;;;21.30;20.40;;;15.80;50.40;;;;;;5011820;28;20450;-56
2023/01/19 12:41:35;;;;;;;21.80;20.90;;;15.80;50.30;;;;;;5012070;28;20496;-59
2023/01/19 12:44:21;;;;;;;22.40;21.40;;;15.80;50.40;;;;;;5012565;28;20568;-60
2023/01/19 12:46:53;;;;;;;22.57;21.57;;;15.80;50.30;;;;;;5012247;28;20975;-58
2023/01/19 12:49:26;;;;;;;22.20;21.20;;;15.80;50.30;;;;;;5011941;28;20448;-59
2023/01/19 12:51:55;;;;;;;22.20;21.20;;;15.80;50.30;;;;;;5012080;28;20449;-59